Terminal Aerodrome Forecast
Issued by NWS Sioux Falls, SD

Home | Current Version | Previous Version | Graphics & Text | Print | Product List | Glossary Off
Versions: 1 2 3 4 5 6 7 8 9 10 11 12 13 14 15 16

000
FTUS43 KFSD 251734
TAFFSD
TAF
KFSD 251734Z 2518/2618 32022G32KT P6SM OVC030
     FM252300 32018G25KT P6SM BKN035
     FM260200 32010KT P6SM SCT035
     FM261100 34006KT P6SM SKC
     FM261600 34010KT P6SM SCT100 BKN200=

USA.gov is the U.S. government's official web portal to all federal, state and local government web resources and services.